createdAt,value
2023-04-15T00:00:01.962Z,5.44
2023-04-15T00:01:02.095Z,5.44
2023-04-15T00:02:02.302Z,5.44
2023-04-15T00:03:02.513Z,5.44
2023-04-15T00:04:02.591Z,5.44
2023-04-15T00:05:02.648Z,5.44
2023-04-15T00:06:02.793Z,5.44
2023-04-15T00:07:02.946Z,5.52
2023-04-15T00:08:03.093Z,5.44
2023-04-15T00:09:03.397Z,5.44
2023-04-15T00:10:03.410Z,5.44
2023-04-15T00:11:03.554Z,5.44
2023-04-15T00:12:03.709Z,5.52
2023-04-15T00:13:03.808Z,5.52
2023-04-15T00:14:03.955Z,5.52
2023-04-15T00:15:04.118Z,5.44
2023-04-15T00:16:04.213Z,5.52
2023-04-15T00:17:04.494Z,5.52
2023-04-15T00:18:04.538Z,5.52
2023-04-15T00:19:04.681Z,5.52
2023-04-15T00:20:04.765Z,5.52
2023-04-15T00:21:04.914Z,5.52
2023-04-15T00:22:05.064Z,5.52
2023-04-15T00:23:05.218Z,5.52
2023-04-15T00:24:05.369Z,5.52
2023-04-15T00:25:05.532Z,5.52
2023-04-15T00:26:05.684Z,5.52
2023-04-15T00:27:05.778Z,5.44
2023-04-15T00:28:05.926Z,5.52
2023-04-15T00:29:06.078Z,5.6
2023-04-15T00:30:06.228Z,5.6
2023-04-15T00:31:06.465Z,5.52
2023-04-15T00:32:06.480Z,5.52
2023-04-15T00:33:06.647Z,5.52
2023-04-15T00:34:06.801Z,5.52
2023-04-15T00:35:06.946Z,5.52
2023-04-15T00:36:07.094Z,5.52
2023-04-15T00:37:07.241Z,5.52
2023-04-15T00:38:07.396Z,5.52
2023-04-15T00:39:07.546Z,5.52
2023-04-15T00:40:07.655Z,5.52
2023-04-15T00:41:07.797Z,5.52
2023-04-15T00:42:08.260Z,5.52
2023-04-15T00:43:07.999Z,5.52
2023-04-15T00:44:08.149Z,5.52
2023-04-15T00:45:08.303Z,5.52
2023-04-15T00:46:08.458Z,5.52
2023-04-15T00:47:08.614Z,5.52
2023-04-15T00:48:08.760Z,5.52
2023-04-15T00:49:08.908Z,5.52
2023-04-15T00:50:09.008Z,5.52
2023-04-15T00:51:09.116Z,5.52
2023-04-15T00:52:09.262Z,5.44
2023-04-15T00:53:09.378Z,5.44
2023-04-15T00:54:09.475Z,5.44
2023-04-15T00:55:09.616Z,5.52
2023-04-15T00:56:09.771Z,5.52
2023-04-15T00:57:09.921Z,5.52
2023-04-15T00:58:10.080Z,5.52
2023-04-15T00:59:10.230Z,5.52
2023-04-15T01:00:10.377Z,5.52
2023-04-15T01:01:10.535Z,5.52
2023-04-15T01:02:10.805Z,5.52
2023-04-15T01:03:10.901Z,5.52
2023-04-15T01:04:11.052Z,5.52
2023-04-15T01:05:11.135Z,5.52
2023-04-15T01:06:11.287Z,5.44
2023-04-15T01:07:11.450Z,5.52
2023-04-15T01:08:11.588Z,5.52
2023-04-15T01:09:11.741Z,5.52
2023-04-15T01:10:11.899Z,5.52
2023-04-15T01:11:12.046Z,5.52
2023-04-15T01:12:12.204Z,5.44
2023-04-15T01:13:12.349Z,5.52
2023-04-15T01:14:12.500Z,5.52
2023-04-15T01:15:12.655Z,5.52
2023-04-15T01:16:12.795Z,5.52
2023-04-15T01:17:12.898Z,5.52
2023-04-15T01:18:13.052Z,5.52
2023-04-15T01:19:13.204Z,5.52
2023-04-15T01:20:13.381Z,5.52
2023-04-15T01:21:13.509Z,5.6
2023-04-15T01:22:13.659Z,5.6
2023-04-15T01:23:13.770Z,5.52
2023-04-15T01:24:13.910Z,5.6
2023-04-15T01:25:14.068Z,5.6
2023-04-15T01:26:14.219Z,5.6
2023-04-15T01:27:14.375Z,5.52
2023-04-15T01:28:14.524Z,5.52
2023-04-15T01:29:14.674Z,5.52
2023-04-15T01:30:14.774Z,5.52
2023-04-15T01:31:14.961Z,5.44
2023-04-15T01:32:15.024Z,5.52
2023-04-15T01:33:15.174Z,5.52
2023-04-15T01:34:15.280Z,5.52
2023-04-15T01:35:15.428Z,5.52
2023-04-15T01:36:15.576Z,5.52
2023-04-15T01:37:15.730Z,5.52
2023-04-15T01:38:15.881Z,5.52
2023-04-15T01:39:16.034Z,5.52
2023-04-15T01:40:16.148Z,5.52
2023-04-15T01:41:16.243Z,5.52
2023-04-15T01:42:16.392Z,5.52
2023-04-15T01:43:16.552Z,5.52
2023-04-15T01:44:16.702Z,5.52
2023-04-15T01:45:16.858Z,5.52
2023-04-15T01:46:16.997Z,5.44
2023-04-15T01:47:17.148Z,5.52
2023-04-15T01:48:17.299Z,5.52
2023-04-15T01:49:17.451Z,5.52
2023-04-15T01:50:17.606Z,5.52
2023-04-15T01:51:17.758Z,5.52
2023-04-15T01:52:17.907Z,5.44
2023-04-15T01:53:18.057Z,5.52
2023-04-15T01:54:18.163Z,5.52
2023-04-15T01:55:18.315Z,5.44
2023-04-15T01:56:18.466Z,5.52
2023-04-15T01:57:18.642Z,5.52
2023-04-15T01:58:18.764Z,5.52
2023-04-15T01:59:18.972Z,5.44
2023-04-15T02:00:19.140Z,5.44
2023-04-15T02:01:19.306Z,5.52
2023-04-15T02:02:19.490Z,5.52
2023-04-15T02:03:19.573Z,5.52
2023-04-15T02:04:19.650Z,5.52
2023-04-15T02:05:19.829Z,5.52
2023-04-15T02:06:19.981Z,5.44
2023-04-15T02:07:20.092Z,5.52
2023-04-15T02:08:20.236Z,5.44
2023-04-15T02:09:20.395Z,5.52
2023-04-15T02:10:20.535Z,5.44
2023-04-15T02:11:20.707Z,5.44
2023-04-15T02:12:20.840Z,5.44
2023-04-15T02:13:20.995Z,5.44
2023-04-15T02:14:21.148Z,5.6
2023-04-15T02:15:21.301Z,5.52
2023-04-15T02:16:21.517Z,5.6
2023-04-15T02:17:21.653Z,5.6
2023-04-15T02:18:21.756Z,5.52
2023-04-15T02:19:21.903Z,5.52
2023-04-15T02:20:22.054Z,5.44
2023-04-15T02:21:22.206Z,5.6
2023-04-15T02:22:22.361Z,5.52
2023-04-15T02:23:22.509Z,5.52
2023-04-15T02:24:22.661Z,5.52
2023-04-15T02:25:22.822Z,5.52
2023-04-15T02:26:22.961Z,5.44
2023-04-15T02:27:23.112Z,5.6
2023-04-15T02:28:23.269Z,5.44
2023-04-15T02:29:23.418Z,5.6
2023-04-15T02:30:23.567Z,5.52
2023-04-15T02:31:23.761Z,5.44
2023-04-15T02:32:23.931Z,5.52
2023-04-15T02:33:24.026Z,5.52
2023-04-15T02:34:24.176Z,5.52
2023-04-15T02:35:24.328Z,5.52
2023-04-15T02:36:24.478Z,5.52
2023-04-15T02:37:24.629Z,5.44
2023-04-15T02:38:24.787Z,5.52
2023-04-15T02:39:24.928Z,5.52
2023-04-15T02:40:25.080Z,5.52
2023-04-15T02:41:25.187Z,5.44
2023-04-15T02:42:25.295Z,5.52
2023-04-15T02:43:25.409Z,5.52
2023-04-15T02:44:25.562Z,5.52
2023-04-15T02:45:25.693Z,5.44
2023-04-15T02:46:25.917Z,5.44
2023-04-15T02:47:26.030Z,5.52
2023-04-15T02:48:26.105Z,5.52
2023-04-15T02:49:26.203Z,5.52
2023-04-15T02:50:26.350Z,5.52
2023-04-15T02:51:26.501Z,5.52
2023-04-15T02:52:26.651Z,5.44
2023-04-15T02:53:26.801Z,5.52
2023-04-15T02:54:26.957Z,5.44
2023-04-15T02:55:27.103Z,5.52
2023-04-15T02:56:27.257Z,5.52
2023-04-15T02:57:27.410Z,5.52
2023-04-15T02:58:27.564Z,5.52
2023-04-15T02:59:27.679Z,5.52
2023-04-15T03:00:27.806Z,5.6
2023-04-15T03:01:27.930Z,5.52
2023-04-15T03:02:28.227Z,5.52
2023-04-15T03:03:28.303Z,5.52
2023-04-15T03:04:28.366Z,5.52
2023-04-15T03:05:28.520Z,5.52
2023-04-15T03:06:29.049Z,5.52
2023-04-15T03:07:28.831Z,5.44
2023-04-15T03:08:28.967Z,5.52
2023-04-15T03:09:29.402Z,5.44
2023-04-15T03:10:29.552Z,5.52
2023-04-15T03:11:29.698Z,5.52
2023-04-15T03:12:29.536Z,5.44
2023-04-15T03:13:29.942Z,5.52
2023-04-15T03:14:30.003Z,5.52
2023-04-15T03:15:30.296Z,5.52
2023-04-15T03:16:30.090Z,5.44
2023-04-15T03:17:30.614Z,5.52
2023-04-15T03:18:30.704Z,5.52
2023-04-15T03:19:30.863Z,5.52
2023-04-15T03:20:31.106Z,5.44
2023-04-15T03:21:30.817Z,5.44
2023-04-15T03:22:30.947Z,5.52
2023-04-15T03:23:31.055Z,5.52
2023-04-15T03:24:31.196Z,5.52
2023-04-15T03:25:31.311Z,5.44
2023-04-15T03:26:31.449Z,5.44
2023-04-15T03:27:31.557Z,5.52
2023-04-15T03:28:31.655Z,5.52
2023-04-15T03:29:31.803Z,5.44
2023-04-15T03:30:31.957Z,5.44
2023-04-15T03:31:32.143Z,5.52
2023-04-15T03:32:32.309Z,5.44
2023-04-15T03:33:32.419Z,5.52
2023-04-15T03:34:32.582Z,5.52
2023-04-15T03:35:32.719Z,5.44
2023-04-15T03:36:32.879Z,5.44
2023-04-15T03:37:33.029Z,5.52
2023-04-15T03:38:33.170Z,5.52
2023-04-15T03:39:33.325Z,5.44
2023-04-15T03:40:33.472Z,5.44
2023-04-15T03:41:33.624Z,5.44
2023-04-15T03:42:33.775Z,5.52
2023-04-15T03:43:33.927Z,5.44
2023-04-15T03:44:34.030Z,5.28
2023-04-15T03:45:34.180Z,5.44
2023-04-15T03:46:34.334Z,5.44
2023-04-15T03:47:34.503Z,5.28
2023-04-15T03:48:34.639Z,5.44
2023-04-15T03:49:34.789Z,5.28
2023-04-15T03:50:34.958Z,5.44
2023-04-15T03:51:35.097Z,5.44
2023-04-15T03:52:35.242Z,5.28
2023-04-15T03:53:35.351Z,5.28
2023-04-15T03:54:35.449Z,5.28
2023-04-15T03:55:35.573Z,5.44
2023-04-15T03:56:35.704Z,5.44
2023-04-15T03:57:35.851Z,5.28
2023-04-15T03:58:35.957Z,5.28
2023-04-15T03:59:36.111Z,5.28
2023-04-15T04:00:36.207Z,5.28
2023-04-15T04:01:36.362Z,5.28
2023-04-15T04:02:36.519Z,5.28
2023-04-15T04:03:36.763Z,5.28
2023-04-15T04:04:36.783Z,5.28
2023-04-15T04:05:36.914Z,5.2
2023-04-15T04:06:37.065Z,5.28
2023-04-15T04:07:37.165Z,5.28
2023-04-15T04:08:37.315Z,5.2
2023-04-15T04:09:37.474Z,5.28
2023-04-15T04:10:37.622Z,5.28
2023-04-15T04:11:37.777Z,5.28
2023-04-15T04:12:37.923Z,5.28
2023-04-15T04:13:38.080Z,5.2
2023-04-15T04:14:38.226Z,5.2
2023-04-15T04:15:38.398Z,5.2
2023-04-15T04:16:38.581Z,5.2
2023-04-15T04:17:38.696Z,5.2
2023-04-15T04:18:38.828Z,5.2
2023-04-15T04:19:38.986Z,5.2
2023-04-15T04:20:39.135Z,5.28
2023-04-15T04:21:39.300Z,5.2
2023-04-15T04:22:39.437Z,5.2
2023-04-15T04:23:39.588Z,5.2
2023-04-15T04:24:39.760Z,5.2
2023-04-15T04:25:39.913Z,5.12
2023-04-15T04:26:40.057Z,5.2
2023-04-15T04:27:40.191Z,5.12
2023-04-15T04:28:40.349Z,5.12
2023-04-15T04:29:40.496Z,5.12
2023-04-15T04:30:40.602Z,5.12
2023-04-15T04:31:40.718Z,5.28
2023-04-15T04:32:40.910Z,5.44
2023-04-15T04:33:41.000Z,5.44
2023-04-15T04:34:41.151Z,5.44
2023-04-15T04:35:41.260Z,5.28
2023-04-15T04:36:41.403Z,5.44
2023-04-15T04:37:41.555Z,5.44
2023-04-15T04:38:41.657Z,5.44
2023-04-15T04:39:41.806Z,5.28
2023-04-15T04:40:41.966Z,5.28
2023-04-15T04:41:42.114Z,5.28
2023-04-15T04:42:42.268Z,5.28
2023-04-15T04:43:42.426Z,5.28
2023-04-15T04:44:42.566Z,5.28
2023-04-15T04:45:42.668Z,5.28
2023-04-15T04:46:42.776Z,5.2
2023-04-15T04:47:42.930Z,5.2
2023-04-15T04:48:43.134Z,5.44
2023-04-15T04:49:43.204Z,5.28
2023-04-15T04:50:43.338Z,5.44
2023-04-15T04:51:43.481Z,5.44
2023-04-15T04:52:43.628Z,5.44
2023-04-15T04:53:43.787Z,5.44
2023-04-15T04:54:43.878Z,5.28
2023-04-15T04:55:44.030Z,5.28
2023-04-15T04:56:44.178Z,5.28
2023-04-15T04:57:44.337Z,5.28
2023-04-15T04:58:44.488Z,5.2
2023-04-15T04:59:44.639Z,5.28
2023-04-15T05:00:44.794Z,5.28
2023-04-15T05:01:44.965Z,5.28
2023-04-15T05:02:45.561Z,5.28
2023-04-15T05:03:45.717Z,5.12
2023-04-15T05:04:45.767Z,5.2
2023-04-15T05:05:45.921Z,5.28
2023-04-15T05:06:45.706Z,5.44
2023-04-15T05:07:45.798Z,5.28
2023-04-15T05:08:45.951Z,5.28
2023-04-15T05:09:46.057Z,5.28
2023-04-15T05:10:46.202Z,5.28
2023-04-15T05:11:46.364Z,5.28
2023-04-15T05:12:46.517Z,5.28
2023-04-15T05:13:46.660Z,5.28
2023-04-15T05:14:46.855Z,5.44
2023-04-15T05:15:46.957Z,5.44
2023-04-15T05:16:47.068Z,5.28
2023-04-15T05:17:47.247Z,5.28
2023-04-15T05:18:47.367Z,5.44
2023-04-15T05:19:47.522Z,5.28
2023-04-15T05:20:47.682Z,5.2
2023-04-15T05:21:47.776Z,5.2
2023-04-15T05:22:47.961Z,5.2
2023-04-15T05:23:48.083Z,5.2
2023-04-15T05:24:48.232Z,5.2
2023-04-15T05:25:48.378Z,5.28
2023-04-15T05:26:48.529Z,5.28
2023-04-15T05:27:48.680Z,5.28
2023-04-15T05:28:48.839Z,5.28
2023-04-15T05:29:48.988Z,5.28
2023-04-15T05:30:49.148Z,5.28
2023-04-15T05:31:49.243Z,5.52
2023-04-15T05:32:49.463Z,5.44
2023-04-15T05:33:49.548Z,5.44
2023-04-15T05:34:49.691Z,5.44
2023-04-15T05:35:49.845Z,5.44
2023-04-15T05:36:50.001Z,5.28
2023-04-15T05:37:50.155Z,5.28
2023-04-15T05:38:50.308Z,5.28
2023-04-15T05:39:50.456Z,5.28
2023-04-15T05:40:50.605Z,5.2
2023-04-15T05:41:50.753Z,5.52
2023-04-15T05:42:50.856Z,5.52
2023-04-15T05:43:51.010Z,5.44
2023-04-15T05:44:51.202Z,5.52
2023-04-15T05:45:51.336Z,5.52
2023-04-15T05:46:51.412Z,5.52
2023-04-15T05:47:51.601Z,5.6
2023-04-15T05:48:51.722Z,5.52
2023-04-15T05:49:51.875Z,5.52
2023-04-15T05:50:52.016Z,5.52
2023-04-15T05:51:52.123Z,5.52
2023-04-15T05:52:52.271Z,5.44
2023-04-15T05:53:52.425Z,5.44
2023-04-15T05:54:52.526Z,5.44
2023-04-15T05:55:52.679Z,5.44
2023-04-15T05:56:52.837Z,5.28
2023-04-15T05:57:52.985Z,5.28
2023-04-15T05:58:53.856Z,5.52
2023-04-15T05:59:53.285Z,5.44
2023-04-15T06:00:53.436Z,5.44
2023-04-15T06:01:53.624Z,5.52
2023-04-15T06:02:53.784Z,5.44
2023-04-15T06:03:54.019Z,5.6
2023-04-15T06:04:54.088Z,5.52
2023-04-15T06:05:54.194Z,5.6
2023-04-15T06:06:54.335Z,5.84
2023-04-15T06:07:54.443Z,5.52
2023-04-15T06:08:54.544Z,5.6
2023-04-15T06:09:54.700Z,5.52
2023-04-15T06:10:54.797Z,5.52
2023-04-15T06:11:54.948Z,5.52
2023-04-15T06:12:55.050Z,5.6
2023-04-15T06:13:55.152Z,5.52
2023-04-15T06:14:55.257Z,5.52
2023-04-15T06:15:55.427Z,5.52
2023-04-15T06:16:55.556Z,5.6
2023-04-15T06:17:55.701Z,5.6
2023-04-15T06:18:55.759Z,5.68
2023-04-15T06:19:55.901Z,5.6
2023-04-15T06:20:56.011Z,5.68
2023-04-15T06:21:56.111Z,5.68
2023-04-15T06:22:56.222Z,5.52
2023-04-15T06:23:56.365Z,5.68
2023-04-15T06:24:56.473Z,5.68
2023-04-15T06:25:56.570Z,5.68
2023-04-15T06:26:56.691Z,5.68
2023-04-15T06:27:56.846Z,5.84
2023-04-15T06:28:57.027Z,5.84
2023-04-15T06:29:57.131Z,5.92
2023-04-15T06:30:57.277Z,5.92
2023-04-15T06:31:57.444Z,5.92
2023-04-15T06:32:57.570Z,5.84
2023-04-15T06:33:57.633Z,5.92
2023-04-15T06:34:57.783Z,6
2023-04-15T06:35:57.938Z,5.92
2023-04-15T06:36:58.088Z,6
2023-04-15T06:37:58.235Z,5.92
2023-04-15T06:38:58.351Z,6
2023-04-15T06:39:58.491Z,5.92
2023-04-15T06:40:58.646Z,5.92
2023-04-15T06:41:58.793Z,6
2023-04-15T06:42:58.944Z,6.08
2023-04-15T06:43:59.096Z,6
2023-04-15T06:44:59.252Z,6
2023-04-15T06:45:59.436Z,6.24
2023-04-15T06:46:59.505Z,6.08
2023-04-15T06:47:59.751Z,6
2023-04-15T06:48:59.914Z,5.92
2023-04-15T06:49:59.907Z,5.92
2023-04-15T06:51:00.060Z,6
2023-04-15T06:52:00.205Z,6
2023-04-15T06:53:00.377Z,6
2023-04-15T06:54:00.510Z,5.92
2023-04-15T06:55:00.659Z,5.92
2023-04-15T06:56:00.809Z,6
2023-04-15T06:57:00.963Z,6
2023-04-15T06:58:01.149Z,6
2023-04-15T06:59:01.382Z,6
2023-04-15T07:00:01.430Z,6.24
2023-04-15T07:01:01.610Z,6.08
2023-04-15T07:02:01.743Z,6
2023-04-15T07:03:01.886Z,6.24
2023-04-15T07:04:01.981Z,6
2023-04-15T07:05:02.076Z,6
2023-04-15T07:06:02.182Z,6.08
2023-04-15T07:07:02.336Z,6.08
2023-04-15T07:08:02.479Z,6.24
2023-04-15T07:09:02.767Z,6.4
2023-04-15T07:10:02.782Z,6.4
2023-04-15T07:11:02.940Z,6.48
2023-04-15T07:12:03.086Z,6.32
2023-04-15T07:13:03.247Z,6.08
2023-04-15T07:14:03.357Z,6.24
2023-04-15T07:15:03.505Z,6.24
2023-04-15T07:16:03.645Z,6.24
2023-04-15T07:17:03.821Z,6.08
2023-04-15T07:18:04.104Z,6.08
2023-04-15T07:19:04.320Z,6.24
2023-04-15T07:20:04.158Z,6.32
2023-04-15T07:21:04.303Z,6.48
2023-04-15T07:22:04.834Z,6.32
2023-04-15T07:23:04.611Z,6.32
2023-04-15T07:24:04.760Z,6.24
2023-04-15T07:25:05.178Z,6.32
2023-04-15T07:26:05.323Z,6.08
2023-04-15T07:27:05.165Z,6
2023-04-15T07:28:05.589Z,6
2023-04-15T07:29:05.731Z,6.08
2023-04-15T07:30:05.724Z,6.4
2023-04-15T07:31:06.087Z,6.4
2023-04-15T07:32:05.866Z,6.4
2023-04-15T07:33:06.305Z,6.4
2023-04-15T07:34:06.479Z,6.4
2023-04-15T07:35:06.232Z,6.32
2023-04-15T07:36:06.752Z,6.32
2023-04-15T07:37:06.965Z,6.32
2023-04-15T07:38:06.675Z,6.4
2023-04-15T07:39:06.830Z,6.24
2023-04-15T07:40:07.288Z,6.24
2023-04-15T07:41:07.454Z,6.24
2023-04-15T07:42:07.565Z,6.08
2023-04-15T07:43:07.356Z,6.24
2023-04-15T07:44:07.485Z,6.24
2023-04-15T07:45:07.641Z,6.32
2023-04-15T07:46:07.819Z,6.32
2023-04-15T07:47:07.947Z,6.4
2023-04-15T07:48:08.097Z,6.4
2023-04-15T07:49:08.252Z,6.4
2023-04-15T07:50:08.399Z,6.64
2023-04-15T07:51:08.501Z,6.72
2023-04-15T07:52:08.603Z,6.72
2023-04-15T07:53:08.806Z,6.72
2023-04-15T07:54:08.925Z,6.64
2023-04-15T07:55:09.068Z,6.48
2023-04-15T07:56:09.214Z,6.48
2023-04-15T07:57:09.362Z,6.64
2023-04-15T07:58:09.462Z,6.8
2023-04-15T07:59:09.612Z,6.88
2023-04-15T08:00:09.721Z,6.88
2023-04-15T08:01:09.817Z,7.44
2023-04-15T08:02:10.048Z,7.44
2023-04-15T08:03:10.248Z,7.28
2023-04-15T08:04:10.321Z,7.04
2023-04-15T08:05:10.396Z,7.04
2023-04-15T08:06:10.520Z,6.72
2023-04-15T08:07:10.677Z,6.8
2023-04-15T08:08:10.826Z,6.72
2023-04-15T08:09:10.975Z,7.04
2023-04-15T08:10:11.143Z,7.04
2023-04-15T08:11:11.231Z,6.88
2023-04-15T08:12:11.381Z,6.8
2023-04-15T08:13:11.537Z,6.64
2023-04-15T08:14:11.645Z,7.04
2023-04-15T08:15:11.780Z,7.12
2023-04-15T08:16:11.923Z,6.88
2023-04-15T08:17:11.991Z,7.28
2023-04-15T08:18:12.145Z,7.44
2023-04-15T08:19:12.243Z,7.52
2023-04-15T08:20:12.394Z,7.44
2023-04-15T08:21:12.543Z,7.2
2023-04-15T08:22:15.166Z,7.52
2023-04-15T08:23:12.853Z,7.2
2023-04-15T08:24:13.010Z,7.44
2023-04-15T08:25:13.148Z,7.2
2023-04-15T08:26:13.250Z,7.52
2023-04-15T08:27:13.398Z,7.52
2023-04-15T08:28:13.553Z,7.44
2023-04-15T08:29:13.656Z,7.52
2023-04-15T08:30:13.824Z,7.6
2023-04-15T08:31:14.003Z,7.28
2023-04-15T08:32:14.063Z,7.28
2023-04-15T08:33:14.208Z,7.28
2023-04-15T08:34:14.315Z,7.28
2023-04-15T08:35:14.460Z,7.2
2023-04-15T08:36:14.614Z,7.28
2023-04-15T08:37:14.766Z,7.12
2023-04-15T08:38:14.915Z,7.04
2023-04-15T08:39:15.075Z,7.12
2023-04-15T08:40:15.227Z,7.12
2023-04-15T08:41:15.376Z,7.12
2023-04-15T08:42:15.480Z,7.12
2023-04-15T08:43:15.625Z,7.12
2023-04-15T08:44:15.778Z,7.2
2023-04-15T08:45:15.929Z,7.44
2023-04-15T08:46:16.135Z,7.28
2023-04-15T08:47:16.234Z,7.6
2023-04-15T08:48:16.399Z,7.52
2023-04-15T08:49:16.534Z,7.84
2023-04-15T08:50:16.688Z,7.44
2023-04-15T08:51:16.837Z,7.68
2023-04-15T08:52:16.992Z,7.84
2023-04-15T08:53:17.102Z,7.92
2023-04-15T08:54:17.307Z,7.92
2023-04-15T08:55:17.395Z,7.68
2023-04-15T08:56:17.579Z,7.84
2023-04-15T08:57:17.650Z,7.84
2023-04-15T08:58:17.801Z,7.68
2023-04-15T08:59:17.950Z,7.84
2023-04-15T09:00:18.158Z,8
2023-04-15T09:01:18.274Z,8.08
2023-04-15T09:02:18.456Z,8.32
2023-04-15T09:03:18.589Z,7.92
2023-04-15T09:04:18.747Z,7.84
2023-04-15T09:05:18.811Z,8
2023-04-15T09:06:18.976Z,8
2023-04-15T09:07:19.122Z,8.08
2023-04-15T09:08:19.282Z,8.639999
2023-04-15T09:09:19.419Z,8.48
2023-04-15T09:10:19.572Z,8.72
2023-04-15T09:11:20.205Z,8.88
2023-04-15T09:12:19.875Z,8.88
2023-04-15T09:13:20.034Z,8.88
2023-04-15T09:14:20.179Z,8.639999
2023-04-15T09:15:20.281Z,8.8
2023-04-15T09:16:20.444Z,8.88
2023-04-15T09:17:20.589Z,8.88
2023-04-15T09:18:20.735Z,8.48
2023-04-15T09:19:20.884Z,8.8
2023-04-15T09:20:21.045Z,8.72
2023-04-15T09:21:21.192Z,8.88
2023-04-15T09:22:21.335Z,9.04
2023-04-15T09:23:21.489Z,8.639999
2023-04-15T09:24:21.634Z,8.8
2023-04-15T09:25:21.794Z,8.88
2023-04-15T09:26:21.940Z,8.8
2023-04-15T09:27:22.094Z,9.04
2023-04-15T09:28:22.209Z,9.12
2023-04-15T09:29:22.352Z,8.88
2023-04-15T09:30:22.514Z,8.88
2023-04-15T09:31:22.681Z,8.88
2023-04-15T09:32:22.783Z,8.639999
2023-04-15T09:33:22.949Z,8.88
2023-04-15T09:34:23.101Z,9.36
2023-04-15T09:35:23.220Z,9.04
2023-04-15T09:36:23.355Z,8.8
2023-04-15T09:37:31.932Z,8.8
2023-04-15T09:38:23.626Z,9.04
2023-04-15T09:39:23.814Z,8.88
2023-04-15T09:40:23.911Z,8.8
2023-04-15T09:41:24.026Z,8.639999
2023-04-15T09:42:24.260Z,8.72
2023-04-15T09:43:24.316Z,8.88
2023-04-15T09:44:24.463Z,8.48
2023-04-15T09:45:27.079Z,8.639999
2023-04-15T09:46:24.752Z,8.639999
2023-04-15T09:47:24.890Z,8.72
2023-04-15T09:48:25.019Z,8.72
2023-04-15T09:49:25.197Z,8.72
2023-04-15T09:50:25.326Z,8.48
2023-04-15T09:51:25.476Z,8.24
2023-04-15T09:52:25.626Z,8.4
2023-04-15T09:53:25.783Z,8.48
2023-04-15T09:54:25.936Z,8.32
2023-04-15T09:55:26.083Z,8.639999
2023-04-15T09:56:26.195Z,8.72
2023-04-15T09:57:26.337Z,8.8
2023-04-15T09:58:26.496Z,8.8
2023-04-15T09:59:26.677Z,8.8
2023-04-15T10:00:26.791Z,8.88
2023-04-15T10:01:26.932Z,8.72
2023-04-15T10:02:27.082Z,8.48
2023-04-15T10:03:27.268Z,8.72
2023-04-15T10:04:27.431Z,9.12
2023-04-15T10:05:27.799Z,9.28
2023-04-15T10:06:27.557Z,9.12
2023-04-15T10:07:27.704Z,9.2
2023-04-15T10:08:27.808Z,9.2
2023-04-15T10:09:27.955Z,8.8
2023-04-15T10:10:28.060Z,9.2
2023-04-15T10:11:29.160Z,9.28
2023-04-15T10:12:28.377Z,9.52
2023-04-15T10:13:28.466Z,9.36
2023-04-15T10:14:28.643Z,9.599999
2023-04-15T10:15:28.766Z,9.92
2023-04-15T10:16:28.928Z,9.679999
2023-04-15T10:18:29.229Z,9.12
2023-04-15T10:19:29.376Z,9.28
2023-04-15T10:20:29.524Z,9.2
2023-04-15T10:21:29.673Z,9.04
2023-04-15T10:22:29.782Z,8.72
2023-04-15T10:23:29.936Z,9.12
2023-04-15T10:24:30.037Z,8.8
2023-04-15T10:25:30.185Z,9.36
2023-04-15T10:26:30.334Z,9.679999
2023-04-15T10:27:30.483Z,10.08
2023-04-15T10:28:30.640Z,10.48
2023-04-15T10:29:30.784Z,10.24
2023-04-15T10:30:30.939Z,9.92
2023-04-15T10:31:31.125Z,9.599999
2023-04-15T10:32:31.290Z,9.679999
2023-04-15T10:33:31.394Z,9.52
2023-04-15T10:34:31.545Z,9.599999
2023-04-15T10:35:31.692Z,9.84
2023-04-15T10:36:31.846Z,9.2
2023-04-15T10:37:31.998Z,9.36
2023-04-15T10:38:32.150Z,9.2
2023-04-15T10:39:32.309Z,9.36
2023-04-15T10:40:32.456Z,9.52
2023-04-15T10:41:32.604Z,9.36
2023-04-15T10:42:32.707Z,9.2
2023-04-15T10:43:32.855Z,9.2
2023-04-15T10:44:33.014Z,9.2
2023-04-15T10:45:33.119Z,9.12
2023-04-15T10:46:33.292Z,8.88
2023-04-15T10:47:33.372Z,9.12
2023-04-15T10:48:33.518Z,9.12
2023-04-15T10:49:33.619Z,9.12
2023-04-15T10:50:33.718Z,9.2
2023-04-15T10:51:33.865Z,9.2
2023-04-15T10:52:33.978Z,9.36
2023-04-15T10:53:34.134Z,9.599999
2023-04-15T10:54:34.273Z,9.28
2023-04-15T10:55:34.431Z,9.12
2023-04-15T10:56:34.582Z,9.04
2023-04-15T10:57:34.681Z,9.04
2023-04-15T10:58:34.832Z,9.2
2023-04-15T10:59:34.943Z,9.12
2023-04-15T11:00:35.084Z,9.36
2023-04-15T11:01:35.288Z,9.04
2023-04-15T11:02:35.586Z,8.88
2023-04-15T11:03:35.671Z,8.8
2023-04-15T11:04:35.721Z,8.8
2023-04-15T11:05:35.840Z,8.72
2023-04-15T11:06:35.948Z,8.8
2023-04-15T11:07:36.086Z,8.88
2023-04-15T11:08:36.243Z,8.88
2023-04-15T11:09:36.404Z,9.12
2023-04-15T11:10:36.548Z,8.72
2023-04-15T11:11:36.696Z,8.88
2023-04-15T11:12:36.851Z,8.72
2023-04-15T11:13:37.001Z,8.8
2023-04-15T11:14:37.148Z,8.88
2023-04-15T11:15:37.303Z,8.639999
2023-04-15T11:16:37.466Z,8.72
2023-04-15T11:17:37.659Z,8.4
2023-04-15T11:18:37.713Z,8.72
2023-04-15T11:19:37.859Z,8.8
2023-04-15T11:20:37.961Z,9.2
2023-04-15T11:21:38.133Z,9.2
2023-04-15T11:22:38.217Z,9.52
2023-04-15T11:23:38.367Z,9.599999
2023-04-15T11:24:38.472Z,9.36
2023-04-15T11:25:38.616Z,9.28
2023-04-15T11:26:38.765Z,9.2
2023-04-15T11:27:38.918Z,9.36
2023-04-15T11:28:39.290Z,9.2
2023-04-15T11:29:39.224Z,9.2
2023-04-15T11:30:39.357Z,9.12
2023-04-15T11:31:39.436Z,9.04
2023-04-15T11:32:39.616Z,9.28
2023-04-15T11:33:39.733Z,9.36
2023-04-15T11:34:39.878Z,8.8
2023-04-15T11:35:40.059Z,9.12
2023-04-15T11:36:40.186Z,9.36
2023-04-15T11:37:40.334Z,9.28
2023-04-15T11:38:40.486Z,9.12
2023-04-15T11:39:40.645Z,9.28
2023-04-15T11:40:40.817Z,9.12
2023-04-15T11:41:40.940Z,9.04
2023-04-15T11:42:49.364Z,9.2
2023-04-15T11:43:41.243Z,9.28
2023-04-15T11:44:41.396Z,9.12
2023-04-15T11:45:41.579Z,9.599999
2023-04-15T11:46:42.078Z,9.679999
2023-04-15T11:47:41.857Z,9.679999
2023-04-15T11:48:41.959Z,9.599999
2023-04-15T11:49:42.066Z,9.679999
2023-04-15T11:50:42.213Z,9.84
2023-04-15T11:51:42.359Z,9.599999
2023-04-15T11:52:42.527Z,9.599999
2023-04-15T11:53:42.676Z,9.599999
2023-04-15T11:54:42.816Z,9.36
2023-04-15T11:55:42.925Z,9.52
2023-04-15T11:56:43.061Z,9.28
2023-04-15T11:57:43.207Z,9.28
2023-04-15T11:58:43.321Z,9.36
2023-04-15T11:59:45.162Z,9.12
2023-04-15T12:00:43.624Z,8.72
2023-04-15T12:01:43.736Z,8.639999
2023-04-15T12:02:43.956Z,8.72
2023-04-15T12:03:44.204Z,8.72
2023-04-15T12:04:44.242Z,8.72
2023-04-15T12:05:44.326Z,8.8
2023-04-15T12:06:44.478Z,8.88
2023-04-15T12:07:44.607Z,8.88
2023-04-15T12:08:44.734Z,9.2
2023-04-15T12:09:44.884Z,8.88
2023-04-15T12:10:45.033Z,8.8
2023-04-15T12:11:45.193Z,8.88
2023-04-15T12:12:45.293Z,8.8
2023-04-15T12:13:45.442Z,8.8
2023-04-15T12:14:45.588Z,8.88
2023-04-15T12:15:45.788Z,9.12
2023-04-15T12:16:48.547Z,8.88
2023-04-15T12:17:50.786Z,9.2
2023-04-15T12:18:46.144Z,9.12
2023-04-15T12:19:46.301Z,9.12
2023-04-15T12:20:46.448Z,9.04
2023-04-15T12:21:46.603Z,9.12
2023-04-15T12:22:46.759Z,9.28
2023-04-15T12:23:46.902Z,9.36
2023-04-15T12:24:47.073Z,9.599999
2023-04-15T12:25:47.208Z,9.679999
2023-04-15T12:26:47.309Z,9.599999
2023-04-15T12:27:47.412Z,9.599999
2023-04-15T12:28:47.568Z,9.599999
2023-04-15T12:29:47.679Z,10
2023-04-15T12:30:47.814Z,9.679999
2023-04-15T12:31:47.937Z,9.599999
2023-04-15T12:32:48.097Z,9.599999
2023-04-15T12:33:48.221Z,9.679999
2023-04-15T12:34:48.376Z,9.679999
2023-04-15T12:35:48.475Z,9.599999
2023-04-15T12:36:48.627Z,9.679999
2023-04-15T12:37:48.787Z,9.12
2023-04-15T12:38:48.928Z,9.12
2023-04-15T12:39:49.120Z,9.12
2023-04-15T12:40:49.184Z,9.2
2023-04-15T12:41:49.336Z,9.52
2023-04-15T12:42:49.481Z,9.36
2023-04-15T12:43:49.653Z,9.36
2023-04-15T12:44:49.790Z,9.36
2023-04-15T12:45:49.941Z,9.36
2023-04-15T12:46:50.101Z,9.599999
2023-04-15T12:47:50.280Z,9.12
2023-04-15T12:48:50.391Z,9.12
2023-04-15T12:49:50.550Z,9.52
2023-04-15T12:50:50.700Z,9.28
2023-04-15T12:51:50.848Z,9.36
2023-04-15T12:52:51.011Z,9.599999
2023-04-15T12:53:51.158Z,9.599999
2023-04-15T12:54:51.302Z,9.52
2023-04-15T12:55:51.454Z,9.679999
2023-04-15T12:56:51.571Z,9.52
2023-04-15T12:57:51.707Z,9.679999
2023-04-15T12:58:51.861Z,9.679999
2023-04-15T12:59:52.018Z,9.52
2023-04-15T13:00:52.169Z,9.12
2023-04-15T13:01:52.564Z,9.12
2023-04-15T13:02:52.463Z,9.52
2023-04-15T13:03:52.564Z,9.84
2023-04-15T13:04:52.701Z,10.08
2023-04-15T13:05:52.796Z,10.32
2023-04-15T13:06:52.930Z,10.08
2023-04-15T13:07:53.077Z,10.4
2023-04-15T13:08:58.105Z,10.639999
2023-04-15T13:09:53.375Z,10.8
2023-04-15T13:10:53.543Z,10.88
2023-04-15T13:11:53.679Z,10.639999
2023-04-15T13:12:53.830Z,10.719999
2023-04-15T13:13:53.984Z,10.639999
2023-04-15T13:14:54.132Z,10.639999
2023-04-15T13:15:54.320Z,10.24
2023-04-15T13:16:54.401Z,10
2023-04-15T13:17:54.573Z,9.92
2023-04-15T13:18:54.707Z,9.92
2023-04-15T13:19:54.838Z,9.92